sensor_id;sensor_type;location;lat;lon;timestamp;pressure;altitude;pressure_sealevel;temperature;humidity
28428;BME280;15662;49.128;8.520;2024-03-23T00:53:23;99647.50;;;18.19;44.45
28428;BME280;15662;49.128;8.520;2024-03-23T00:55:49;99646.66;;;18.19;44.52
28428;BME280;15662;49.128;8.520;2024-03-23T00:58:16;99643.97;;;18.19;44.53
28428;BME280;15662;49.128;8.520;2024-03-23T01:00:42;99618.19;;;18.16;44.56
28428;BME280;15662;49.128;8.520;2024-03-23T01:03:08;99619.72;;;18.20;44.52
28428;BME280;15662;49.128;8.520;2024-03-23T01:05:34;99629.47;;;18.21;44.52
28428;BME280;15662;49.128;8.520;2024-03-23T01:08:00;99622.28;;;18.22;44.55
28428;BME280;15662;49.128;8.520;2024-03-23T01:10:26;99618.53;;;18.24;44.46
28428;BME280;15662;49.128;8.520;2024-03-23T01:12:53;99612.41;;;18.22;44.49
28428;BME280;15662;49.128;8.520;2024-03-23T01:15:19;99616.38;;;18.17;44.44
28428;BME280;15662;49.128;8.520;2024-03-23T01:17:45;99608.25;;;18.18;44.48
28428;BME280;15662;49.128;8.520;2024-03-23T01:20:11;99589.88;;;18.12;44.52
28428;BME280;15662;49.128;8.520;2024-03-23T01:22:37;99586.66;;;18.07;44.53
28428;BME280;15662;49.128;8.520;2024-03-23T01:25:04;99583.41;;;18.02;44.65
28428;BME280;15662;49.128;8.520;2024-03-23T01:27:30;99589.88;;;17.99;44.75
28428;BME280;15662;49.128;8.520;2024-03-23T01:29:56;99594.56;;;17.96;44.72
28428;BME280;15662;49.128;8.520;2024-03-23T01:32:22;99590.84;;;17.98;44.79
28428;BME280;15662;49.128;8.520;2024-03-23T01:34:48;99580.31;;;17.95;44.83
28428;BME280;15662;49.128;8.520;2024-03-23T01:37:15;99587.84;;;18.03;44.79
28428;BME280;15662;49.128;8.520;2024-03-23T01:39:41;99579.81;;;18.03;44.88
28428;BME280;15662;49.128;8.520;2024-03-23T01:42:07;99575.19;;;18.05;44.75
28428;BME280;15662;49.128;8.520;2024-03-23T01:44:33;99581.81;;;18.12;44.70
28428;BME280;15662;49.128;8.520;2024-03-23T01:46:59;99571.22;;;18.11;44.72
28428;BME280;15662;49.128;8.520;2024-03-23T01:49:26;99571.22;;;18.11;44.73
28428;BME280;15662;49.128;8.520;2024-03-23T01:51:52;99568.22;;;18.15;44.76
28428;BME280;15662;49.128;8.520;2024-03-23T01:54:19;99563.50;;;18.19;44.82
28428;BME280;15662;49.128;8.520;2024-03-23T01:56:45;99559.97;;;18.18;44.72
28428;BME280;15662;49.128;8.520;2024-03-23T01:59:11;99572.16;;;18.22;44.74
28428;BME280;15662;49.128;8.520;2024-03-23T02:01:38;99560.81;;;18.19;44.75
28428;BME280;15662;49.128;8.520;2024-03-23T02:04:05;99573.66;;;18.26;44.81
28428;BME280;15662;49.128;8.520;2024-03-23T02:06:31;99568.31;;;18.26;44.93
28428;BME280;15662;49.128;8.520;2024-03-23T02:08:57;99562.84;;;18.28;44.77
28428;BME280;15662;49.128;8.520;2024-03-23T02:11:23;99554.81;;;18.28;44.85
28428;BME280;15662;49.128;8.520;2024-03-23T02:13:50;99560.06;;;18.29;44.76
28428;BME280;15662;49.128;8.520;2024-03-23T02:16:16;99552.13;;;18.28;44.68
28428;BME280;15662;49.128;8.520;2024-03-23T02:18:42;99552.88;;;18.30;44.53
28428;BME280;15662;49.128;8.520;2024-03-23T02:21:08;99541.47;;;18.26;44.67
28428;BME280;15662;49.128;8.520;2024-03-23T02:23:34;99545.56;;;18.32;44.60
28428;BME280;15662;49.128;8.520;2024-03-23T02:26:00;99530.44;;;18.31;44.64
28428;BME280;15662;49.128;8.520;2024-03-23T02:28:27;99528.72;;;18.30;44.63
28428;BME280;15662;49.128;8.520;2024-03-23T02:30:53;99534.94;;;18.30;44.58
28428;BME280;15662;49.128;8.520;2024-03-23T02:33:19;99527.97;;;18.28;44.61
28428;BME280;15662;49.128;8.520;2024-03-23T02:35:46;99531.00;;;18.23;44.63
28428;BME280;15662;49.128;8.520;2024-03-23T02:38:13;99541.47;;;18.26;44.64
28428;BME280;15662;49.128;8.520;2024-03-23T02:40:39;99534.63;;;18.22;44.83
28428;BME280;15662;49.128;8.520;2024-03-23T02:43:05;99535.38;;;18.24;44.80
28428;BME280;15662;49.128;8.520;2024-03-23T02:45:31;99529.25;;;18.22;44.86
28428;BME280;15662;49.128;8.520;2024-03-23T02:47:57;99525.38;;;18.26;44.79
28428;BME280;15662;49.128;8.520;2024-03-23T02:50:24;99530.88;;;18.25;44.87
28428;BME280;15662;49.128;8.520;2024-03-23T02:52:50;99534.22;;;18.28;44.93
28428;BME280;15662;49.128;8.520;2024-03-23T02:55:16;99533.97;;;18.31;44.91
28428;BME280;15662;49.128;8.520;2024-03-23T02:57:42;99527.66;;;18.33;44.88
28428;BME280;15662;49.128;8.520;2024-03-23T03:00:09;99526.78;;;18.32;44.79
28428;BME280;15662;49.128;8.520;2024-03-23T03:02:37;99528.53;;;18.33;44.86
28428;BME280;15662;49.128;8.520;2024-03-23T03:05:05;99537.41;;;18.34;44.83
28428;BME280;15662;49.128;8.520;2024-03-23T03:07:32;99526.25;;;18.27;44.83
28428;BME280;15662;49.128;8.520;2024-03-23T03:09:58;99528.19;;;18.25;44.83
28428;BME280;15662;49.128;8.520;2024-03-23T03:12:24;99532.59;;;18.26;44.81
28428;BME280;15662;49.128;8.520;2024-03-23T03:14:50;99537.28;;;18.22;44.99
28428;BME280;15662;49.128;8.520;2024-03-23T03:17:16;99526.56;;;18.22;44.98
28428;BME280;15662;49.128;8.520;2024-03-23T03:19:43;99531.94;;;18.22;45.08
28428;BME280;15662;49.128;8.520;2024-03-23T03:22:09;99538.28;;;18.21;45.07
28428;BME280;15662;49.128;8.520;2024-03-23T03:24:35;99526.03;;;18.17;45.08
28428;BME280;15662;49.128;8.520;2024-03-23T03:27:01;99539.97;;;18.22;45.23
28428;BME280;15662;49.128;8.520;2024-03-23T03:29:29;99531.00;;;18.23;45.28
28428;BME280;15662;49.128;8.520;2024-03-23T03:32:02;99522.94;;;18.23;45.47
28428;BME280;15662;49.128;8.520;2024-03-23T03:34:28;99518.63;;;18.21;45.65
28428;BME280;15662;49.128;8.520;2024-03-23T03:36:56;99512.94;;;18.25;45.53
28428;BME280;15662;49.128;8.520;2024-03-23T03:39:22;99514.56;;;18.28;45.58
28428;BME280;15662;49.128;8.520;2024-03-23T03:41:49;99505.56;;;18.29;45.63
28428;BME280;15662;49.128;8.520;2024-03-23T03:44:15;99511.13;;;18.26;45.65
28428;BME280;15662;49.128;8.520;2024-03-23T03:46:41;99508.44;;;18.26;45.84
28428;BME280;15662;49.128;8.520;2024-03-23T03:49:08;99516.41;;;18.27;45.82
28428;BME280;15662;49.128;8.520;2024-03-23T03:51:34;99508.69;;;18.23;45.77
28428;BME280;15662;49.128;8.520;2024-03-23T03:54:00;99519.09;;;18.27;45.75
28428;BME280;15662;49.128;8.520;2024-03-23T03:56:26;99521.84;;;18.26;45.80
28428;BME280;15662;49.128;8.520;2024-03-23T03:58:53;99525.31;;;18.28;45.74
28428;BME280;15662;49.128;8.520;2024-03-23T04:01:20;99511.97;;;18.26;45.68
28428;BME280;15662;49.128;8.520;2024-03-23T04:03:46;99512.22;;;18.23;45.73
28428;BME280;15662;49.128;8.520;2024-03-23T04:06:18;99501.50;;;18.23;45.67
28428;BME280;15662;49.128;8.520;2024-03-23T04:08:44;99494.09;;;18.14;45.69
28428;BME280;15662;49.128;8.520;2024-03-23T04:11:10;99489.47;;;18.16;45.52
28428;BME280;15662;49.128;8.520;2024-03-23T04:13:37;99486.03;;;18.14;45.53
28428;BME280;15662;49.128;8.520;2024-03-23T04:16:03;99480.75;;;18.13;45.59
28428;BME280;15662;49.128;8.520;2024-03-23T04:18:29;99482.38;;;18.15;45.56
28428;BME280;15662;49.128;8.520;2024-03-23T04:20:56;99485.06;;;18.15;45.55
28428;BME280;15662;49.128;8.520;2024-03-23T04:23:22;99488.81;;;18.13;45.53
28428;BME280;15662;49.128;8.520;2024-03-23T04:25:48;99487.88;;;18.14;45.41
28428;BME280;15662;49.128;8.520;2024-03-23T04:28:14;99496.78;;;18.14;45.40
28428;BME280;15662;49.128;8.520;2024-03-23T04:30:41;99500.44;;;18.13;45.45
28428;BME280;15662;49.128;8.520;2024-03-23T04:33:07;99502.56;;;18.08;45.40
28428;BME280;15662;49.128;8.520;2024-03-23T04:35:33;99506.53;;;18.02;45.35
28428;BME280;15662;49.128;8.520;2024-03-23T04:37:59;99496.88;;;18.00;45.36
28428;BME280;15662;49.128;8.520;2024-03-23T04:40:26;99501.06;;;18.04;45.38
28428;BME280;15662;49.128;8.520;2024-03-23T04:42:52;99502.38;;;17.98;45.45
28428;BME280;15662;49.128;8.520;2024-03-23T04:45:18;99522.84;;;17.99;45.32
28428;BME280;15662;49.128;8.520;2024-03-23T04:47:44;99515.13;;;17.95;45.37
28428;BME280;15662;49.128;8.520;2024-03-23T04:50:11;99516.94;;;17.94;45.28
28428;BME280;15662;49.128;8.520;2024-03-23T04:52:37;99510.28;;;17.87;45.25
28428;BME280;15662;49.128;8.520;2024-03-23T04:55:03;99506.09;;;17.83;45.30
28428;BME280;15662;49.128;8.520;2024-03-23T04:57:30;99532.16;;;17.81;45.37
28428;BME280;15662;49.128;8.520;2024-03-23T04:59:56;99521.75;;;17.76;45.34
28428;BME280;15662;49.128;8.520;2024-03-23T05:02:22;99527.88;;;17.78;45.25
28428;BME280;15662;49.128;8.520;2024-03-23T05:04:49;99512.38;;;17.69;45.25
28428;BME280;15662;49.128;8.520;2024-03-23T05:07:15;99518.59;;;17.70;45.06
28428;BME280;15662;49.128;8.520;2024-03-23T05:09:41;99529.22;;;17.71;44.94
28428;BME280;15662;49.128;8.520;2024-03-23T05:12:07;99530.50;;;17.66;45.02
28428;BME280;15662;49.128;8.520;2024-03-23T05:14:33;99546.88;;;17.61;44.88
28428;BME280;15662;49.128;8.520;2024-03-23T05:16:59;99530.44;;;17.53;44.77
28428;BME280;15662;49.128;8.520;2024-03-23T05:19:26;99548.88;;;17.45;44.63
28428;BME280;15662;49.128;8.520;2024-03-23T05:21:52;99560.97;;;17.38;44.61
28428;BME280;15662;49.128;8.520;2024-03-23T05:24:19;99571.13;;;17.33;44.70
28428;BME280;15662;49.128;8.520;2024-03-23T05:26:45;99569.81;;;17.25;44.69
28428;BME280;15662;49.128;8.520;2024-03-23T05:29:11;99575.25;;;17.24;44.70
28428;BME280;15662;49.128;8.520;2024-03-23T05:31:39;99580.59;;;17.24;44.63
28428;BME280;15662;49.128;8.520;2024-03-23T05:34:09;99577.50;;;17.17;44.60
28428;BME280;15662;49.128;8.520;2024-03-23T05:36:35;99580.94;;;17.19;44.57
28428;BME280;15662;49.128;8.520;2024-03-23T05:39:02;99590.13;;;17.15;44.54
28428;BME280;15662;49.128;8.520;2024-03-23T05:41:29;99586.13;;;17.08;44.50
28428;BME280;15662;49.128;8.520;2024-03-23T05:43:55;99594.16;;;17.08;44.50
28428;BME280;15662;49.128;8.520;2024-03-23T05:46:21;99603.16;;;17.07;44.55
28428;BME280;15662;49.128;8.520;2024-03-23T05:48:47;99614.72;;;17.08;44.52
28428;BME280;15662;49.128;8.520;2024-03-23T05:51:13;99627.34;;;17.06;44.61
28428;BME280;15662;49.128;8.520;2024-03-23T05:53:39;99636.81;;;16.97;44.57
28428;BME280;15662;49.128;8.520;2024-03-23T05:56:06;99647.63;;;16.95;44.65
28428;BME280;15662;49.128;8.520;2024-03-23T05:58:33;99652.22;;;16.93;44.57
28428;BME280;15662;49.128;8.520;2024-03-23T06:01:00;99653.84;;;16.82;44.70
28428;BME280;15662;49.128;8.520;2024-03-23T06:03:28;99670.47;;;16.87;44.71
28428;BME280;15662;49.128;8.520;2024-03-23T06:05:55;99676.00;;;16.84;44.82
28428;BME280;15662;49.128;8.520;2024-03-23T06:08:22;99673.63;;;16.79;44.69
28428;BME280;15662;49.128;8.520;2024-03-23T06:10:50;99683.75;;;16.74;44.83
28428;BME280;15662;49.128;8.520;2024-03-23T06:13:16;99697.13;;;16.74;44.75
28428;BME280;15662;49.128;8.520;2024-03-23T06:15:43;99694.72;;;16.69;44.84
28428;BME280;15662;49.128;8.520;2024-03-23T06:18:09;99691.19;;;16.69;44.74
28428;BME280;15662;49.128;8.520;2024-03-23T06:20:35;99700.66;;;16.60;44.67
28428;BME280;15662;49.128;8.520;2024-03-23T06:23:02;99709.59;;;16.59;44.59
28428;BME280;15662;49.128;8.520;2024-03-23T06:25:29;99714.59;;;16.51;44.71
28428;BME280;15662;49.128;8.520;2024-03-23T06:27:56;99727.28;;;16.47;44.62
28428;BME280;15662;49.128;8.520;2024-03-23T06:30:24;99728.50;;;16.42;44.81
28428;BME280;15662;49.128;8.520;2024-03-23T06:32:52;99748.00;;;16.44;44.55
28428;BME280;15662;49.128;8.520;2024-03-23T06:35:19;99758.03;;;16.40;44.45
28428;BME280;15662;49.128;8.520;2024-03-23T06:37:45;99754.72;;;16.35;44.47
28428;BME280;15662;49.128;8.520;2024-03-23T06:40:12;99760.19;;;16.34;44.47
28428;BME280;15662;49.128;8.520;2024-03-23T06:42:38;99768.31;;;16.32;44.35
28428;BME280;15662;49.128;8.520;2024-03-23T06:45:06;99773.56;;;16.34;44.34
28428;BME280;15662;49.128;8.520;2024-03-23T06:47:32;99769.34;;;16.30;44.43
28428;BME280;15662;49.128;8.520;2024-03-23T06:50:03;99780.88;;;16.30;44.26
28428;BME280;15662;49.128;8.520;2024-03-23T06:52:30;99780.31;;;16.25;44.40
28428;BME280;15662;49.128;8.520;2024-03-23T06:54:57;99792.53;;;16.29;44.30
28428;BME280;15662;49.128;8.520;2024-03-23T06:57:23;99808.59;;;16.29;44.14
28428;BME280;15662;49.128;8.520;2024-03-23T06:59:49;99812.06;;;16.31;44.28
28428;BME280;15662;49.128;8.520;2024-03-23T07:02:16;99825.44;;;16.31;44.33
28428;BME280;15662;49.128;8.520;2024-03-23T07:04:42;99822.81;;;16.30;43.76
28428;BME280;15662;49.128;8.520;2024-03-23T07:07:09;99820.69;;;16.20;43.61
28428;BME280;15662;49.128;8.520;2024-03-23T07:09:35;99836.66;;;16.22;43.34
28428;BME280;15662;49.128;8.520;2024-03-23T07:12:01;99839.69;;;16.16;43.41
28428;BME280;15662;49.128;8.520;2024-03-23T07:14:27;99854.84;;;16.15;43.40
28428;BME280;15662;49.128;8.520;2024-03-23T07:16:53;99842.78;;;16.08;43.26
28428;BME280;15662;49.128;8.520;2024-03-23T07:19:19;99856.41;;;16.04;43.38
28428;BME280;15662;49.128;8.520;2024-03-23T07:21:45;99854.09;;;15.97;43.32
28428;BME280;15662;49.128;8.520;2024-03-23T07:24:12;99860.44;;;15.95;43.37
28428;BME280;15662;49.128;8.520;2024-03-23T07:26:38;99869.59;;;15.91;43.32
28428;BME280;15662;49.128;8.520;2024-03-23T07:29:05;99878.75;;;15.87;43.62
28428;BME280;15662;49.128;8.520;2024-03-23T07:31:32;99884.34;;;15.82;43.61
28428;BME280;15662;49.128;8.520;2024-03-23T07:33:58;99898.47;;;15.84;43.76
28428;BME280;15662;49.128;8.520;2024-03-23T07:36:24;99903.91;;;15.83;43.68
28428;BME280;15662;49.128;8.520;2024-03-23T07:38:50;99917.97;;;15.86;43.75
28428;BME280;15662;49.128;8.520;2024-03-23T07:41:19;99915.91;;;15.91;43.81
28428;BME280;15662;49.128;8.520;2024-03-23T07:43:46;99919.84;;;16.00;43.80
28428;BME280;15662;49.128;8.520;2024-03-23T07:46:14;99925.91;;;16.04;43.75
28428;BME280;15662;49.128;8.520;2024-03-23T07:48:41;99931.88;;;16.09;43.70
28428;BME280;15662;49.128;8.520;2024-03-23T07:51:17;99941.09;;;16.19;43.65
28428;BME280;15662;49.128;8.520;2024-03-23T07:53:45;99953.59;;;16.18;43.85
28428;BME280;15662;49.128;8.520;2024-03-23T07:56:15;99967.41;;;16.27;43.75
28428;BME280;15662;49.128;8.520;2024-03-23T07:58:42;99972.56;;;16.30;43.63
28428;BME280;15662;49.128;8.520;2024-03-23T08:01:11;99971.66;;;16.31;43.63
28428;BME280;15662;49.128;8.520;2024-03-23T08:03:40;99979.41;;;16.35;43.61
28428;BME280;15662;49.128;8.520;2024-03-23T08:06:18;99987.16;;;16.40;43.37
28428;BME280;15662;49.128;8.520;2024-03-23T08:08:47;99991.66;;;16.39;43.38
28428;BME280;15662;49.128;8.520;2024-03-23T08:11:14;99993.31;;;16.42;43.37
28428;BME280;15662;49.128;8.520;2024-03-23T08:13:42;99989.78;;;16.41;43.18
28428;BME280;15662;49.128;8.520;2024-03-23T08:16:08;100004.53;;;16.48;43.25
28428;BME280;15662;49.128;8.520;2024-03-23T08:18:35;99991.34;;;16.45;43.11
28428;BME280;15662;49.128;8.520;2024-03-23T08:21:05;100003.56;;;16.49;42.90
28428;BME280;15662;49.128;8.520;2024-03-23T08:23:34;100004.25;;;16.53;43.06
28428;BME280;15662;49.128;8.520;2024-03-23T08:26:07;100024.47;;;16.59;42.76
28428;BME280;15662;49.128;8.520;2024-03-23T08:28:33;100017.47;;;16.56;42.81
28428;BME280;15662;49.128;8.520;2024-03-23T08:31:06;100019.91;;;16.61;42.53
28428;BME280;15662;49.128;8.520;2024-03-23T08:33:33;100036.88;;;16.60;42.69
28428;BME280;15662;49.128;8.520;2024-03-23T08:36:08;100029.28;;;16.68;42.27
28428;BME280;15662;49.128;8.520;2024-03-23T08:38:35;100038.28;;;16.67;42.35
28428;BME280;15662;49.128;8.520;2024-03-23T08:41:03;100032.78;;;16.70;42.41
28428;BME280;15662;49.128;8.520;2024-03-23T08:43:32;100022.75;;;16.73;41.96
28428;BME280;15662;49.128;8.520;2024-03-23T08:46:15;100033.41;;;16.75;41.45
28428;BME280;15662;49.128;8.520;2024-03-23T08:48:46;100041.50;;;16.73;41.39
28428;BME280;15662;49.128;8.520;2024-03-23T08:51:16;100048.81;;;16.70;41.30
28428;BME280;15662;49.128;8.520;2024-03-23T08:53:43;100049.84;;;16.67;41.31
28428;BME280;15662;49.128;8.520;2024-03-23T08:56:10;100056.78;;;16.71;41.47
28428;BME280;15662;49.128;8.520;2024-03-23T08:58:38;100049.53;;;16.73;41.49
28428;BME280;15662;49.128;8.520;2024-03-23T09:01:10;100053.41;;;16.84;41.05
28428;BME280;15662;49.128;8.520;2024-03-23T09:03:37;100049.25;;;16.94;40.73
28428;BME280;15662;49.128;8.520;2024-03-23T09:06:08;100064.81;;;17.03;40.42
28428;BME280;15662;49.128;8.520;2024-03-23T09:08:35;100051.06;;;17.09;40.34
28428;BME280;15662;49.128;8.520;2024-03-23T09:11:07;100057.53;;;17.21;39.89
28428;BME280;15662;49.128;8.520;2024-03-23T09:13:35;100048.53;;;17.22;39.94
28428;BME280;15662;49.128;8.520;2024-03-23T09:16:03;100051.97;;;17.24;39.80
28428;BME280;15662;49.128;8.520;2024-03-23T09:18:35;100053.19;;;17.34;39.20
28428;BME280;15662;49.128;8.520;2024-03-23T09:21:12;100065.25;;;17.41;38.99
28428;BME280;15662;49.128;8.520;2024-03-23T09:23:44;100059.81;;;17.43;38.57
28428;BME280;15662;49.128;8.520;2024-03-23T09:26:11;100043.94;;;17.40;38.68
28428;BME280;15662;49.128;8.520;2024-03-23T09:28:37;100056.38;;;17.41;38.04
28428;BME280;15662;49.128;8.520;2024-03-23T09:31:08;100059.47;;;17.33;37.76
28428;BME280;15662;49.128;8.520;2024-03-23T09:33:35;100047.31;;;17.27;38.14
28428;BME280;15662;49.128;8.520;2024-03-23T09:36:06;100053.25;;;17.33;38.00
28428;BME280;15662;49.128;8.520;2024-03-23T09:38:34;100055.78;;;17.36;37.66
28428;BME280;15662;49.128;8.520;2024-03-23T09:41:06;100055.56;;;17.39;37.72
28428;BME280;15662;49.128;8.520;2024-03-23T09:43:32;100052.81;;;17.40;37.67
28428;BME280;15662;49.128;8.520;2024-03-23T09:45:59;100051.69;;;17.44;37.51
28428;BME280;15662;49.128;8.520;2024-03-23T09:48:25;100069.13;;;17.51;37.56
28428;BME280;15662;49.128;8.520;2024-03-23T09:50:52;100065.47;;;17.52;37.39
28428;BME280;15662;49.128;8.520;2024-03-23T09:53:18;100059.63;;;17.46;37.30
28428;BME280;15662;49.128;8.520;2024-03-23T09:55:44;100062.69;;;17.40;36.97
28428;BME280;15662;49.128;8.520;2024-03-23T09:58:16;100067.25;;;17.38;36.83
28428;BME280;15662;49.128;8.520;2024-03-23T10:00:43;100060.81;;;17.26;36.98
28428;BME280;15662;49.128;8.520;2024-03-23T10:03:09;100080.41;;;17.26;36.84
28428;BME280;15662;49.128;8.520;2024-03-23T10:05:37;100081.44;;;17.24;37.10
28428;BME280;15662;49.128;8.520;2024-03-23T10:08:18;100082.13;;;17.27;36.75
28428;BME280;15662;49.128;8.520;2024-03-23T10:10:45;100079.66;;;17.09;37.67
28428;BME280;15662;49.128;8.520;2024-03-23T10:13:27;100081.44;;;17.24;37.43
28428;BME280;15662;49.128;8.520;2024-03-23T10:15:59;100081.50;;;17.38;37.15
28428;BME280;15662;49.128;8.520;2024-03-23T10:18:26;100071.47;;;17.42;37.03
28428;BME280;15662;49.128;8.520;2024-03-23T10:21:10;100065.75;;;17.48;36.32
28428;BME280;15662;49.128;8.520;2024-03-23T10:23:39;100071.69;;;17.53;36.73
28428;BME280;15662;49.128;8.520;2024-03-23T10:26:24;100076.72;;;17.59;36.32
28428;BME280;15662;49.128;8.520;2024-03-23T10:31:19;100068.75;;;17.58;36.40
28428;BME280;15662;49.128;8.520;2024-03-23T10:33:49;100067.03;;;17.57;36.01
28428;BME280;15662;49.128;8.520;2024-03-23T10:36:15;100075.34;;;17.52;36.17
28428;BME280;15662;49.128;8.520;2024-03-23T10:38:44;100069.13;;;17.51;36.23
28428;BME280;15662;49.128;8.520;2024-03-23T10:41:11;100074.38;;;17.53;36.30
28428;BME280;15662;49.128;8.520;2024-03-23T10:43:38;100066.34;;;17.53;36.37
28428;BME280;15662;49.128;8.520;2024-03-23T10:46:05;100067.81;;;17.59;36.58
28428;BME280;15662;49.128;8.520;2024-03-23T10:48:32;100080.38;;;17.72;36.79
28428;BME280;15662;49.128;8.520;2024-03-23T10:50:59;100074.13;;;17.73;36.97
28428;BME280;15662;49.128;8.520;2024-03-23T10:53:27;100076.81;;;17.88;36.92
28428;BME280;15662;49.128;8.520;2024-03-23T10:55:56;100068.69;;;17.89;36.58
28428;BME280;15662;49.128;8.520;2024-03-23T10:58:40;100076.53;;;17.92;36.48
28428;BME280;15662;49.128;8.520;2024-03-23T11:01:14;100086.22;;;17.95;36.80
28428;BME280;15662;49.128;8.520;2024-03-23T11:03:45;100072.97;;;17.92;36.55
28428;BME280;15662;49.128;8.520;2024-03-23T11:06:38;100072.31;;;17.88;36.20
28428;BME280;15662;49.128;8.520;2024-03-23T11:12:28;100079.38;;;17.75;35.66
28428;BME280;15662;49.128;8.520;2024-03-23T11:15:05;100064.78;;;17.65;35.82
28428;BME280;15662;49.128;8.520;2024-03-23T11:17:32;100050.09;;;17.56;35.69
28428;BME280;15662;49.128;8.520;2024-03-23T11:20:02;100065.13;;;17.59;35.69
28428;BME280;15662;49.128;8.520;2024-03-23T11:22:46;100058.41;;;17.51;35.70
28428;BME280;15662;49.128;8.520;2024-03-23T11:25:20;100046.94;;;17.49;36.11
28428;BME280;15662;49.128;8.520;2024-03-23T11:27:50;100047.09;;;17.46;35.76
28428;BME280;15662;49.128;8.520;2024-03-23T11:32:46;100054.75;;;17.52;35.87
28428;BME280;15662;49.128;8.520;2024-03-23T11:35:33;100050.84;;;17.58;35.37
28428;BME280;15662;49.128;8.520;2024-03-23T11:40:33;100046.88;;;17.65;35.31
28428;BME280;15662;49.128;8.520;2024-03-23T11:43:02;100051.78;;;17.73;35.26
28428;BME280;15662;49.128;8.520;2024-03-23T11:45:33;100048.94;;;17.76;35.38
28428;BME280;15662;49.128;8.520;2024-03-23T11:48:06;100042.59;;;17.77;34.76
28428;BME280;15662;49.128;8.520;2024-03-23T11:50:34;100029.41;;;17.74;34.89
28428;BME280;15662;49.128;8.520;2024-03-23T11:53:18;100038.09;;;17.77;34.46
28428;BME280;15662;49.128;8.520;2024-03-23T11:56:00;100031.88;;;17.77;34.43
28428;BME280;15662;49.128;8.520;2024-03-23T11:58:27;100036.38;;;17.76;34.35
28428;BME280;15662;49.128;8.520;2024-03-23T12:01:00;100041.56;;;17.79;34.08
28428;BME280;15662;49.128;8.520;2024-03-23T12:03:28;100037.44;;;17.74;33.88
28428;BME280;15662;49.128;8.520;2024-03-23T12:05:59;100034.81;;;17.72;33.66
28428;BME280;15662;49.128;8.520;2024-03-23T12:08:33;100033.09;;;17.71;33.79
28428;BME280;15662;49.128;8.520;2024-03-23T12:11:13;100016.00;;;17.74;33.65
28428;BME280;15662;49.128;8.520;2024-03-23T12:13:42;100006.22;;;17.73;34.29
28428;BME280;15662;49.128;8.520;2024-03-23T12:16:14;100012.44;;;17.88;34.45
28428;BME280;15662;49.128;8.520;2024-03-23T12:18:42;99995.81;;;17.97;34.74
28428;BME280;15662;49.128;8.520;2024-03-23T12:21:09;99986.78;;;17.98;34.60
28428;BME280;15662;49.128;8.520;2024-03-23T12:23:38;99995.44;;;18.03;34.91
28428;BME280;15662;49.128;8.520;2024-03-23T12:26:04;99997.44;;;17.99;35.04
28428;BME280;15662;49.128;8.520;2024-03-23T12:28:32;99993.91;;;17.99;35.00
28428;BME280;15662;49.128;8.520;2024-03-23T12:30:58;100004.06;;;17.94;35.22
28428;BME280;15662;49.128;8.520;2024-03-23T12:33:24;100029.50;;;17.87;35.21
28428;BME280;15662;49.128;8.520;2024-03-23T12:35:51;100023.22;;;17.72;35.26
28428;BME280;15662;49.128;8.520;2024-03-23T12:38:17;100014.94;;;17.46;35.67
28428;BME280;15662;49.128;8.520;2024-03-23T12:40:50;100003.88;;;17.22;35.60
28428;BME280;15662;49.128;8.520;2024-03-23T12:43:17;100004.88;;;17.06;35.87
28428;BME280;15662;49.128;8.520;2024-03-23T12:45:48;100010.22;;;17.06;36.03
28428;BME280;15662;49.128;8.520;2024-03-23T12:48:15;100019.66;;;16.97;36.05
28428;BME280;15662;49.128;8.520;2024-03-23T12:50:42;100013.59;;;16.93;36.01
28428;BME280;15662;49.128;8.520;2024-03-23T12:53:08;100004.47;;;16.82;36.14
28428;BME280;15662;49.128;8.520;2024-03-23T12:55:37;100013.44;;;16.81;36.11
28428;BME280;15662;49.128;8.520;2024-03-23T12:58:04;100020.31;;;16.69;36.20
28428;BME280;15662;49.128;8.520;2024-03-23T13:00:30;100058.13;;;16.63;36.16
28428;BME280;15662;49.128;8.520;2024-03-23T13:02:56;100095.13;;;16.39;36.52
28428;BME280;15662;49.128;8.520;2024-03-23T13:05:23;100114.56;;;16.25;37.09
28428;BME280;15662;49.128;8.520;2024-03-23T13:07:49;100099.66;;;16.04;37.57
28428;BME280;15662;49.128;8.520;2024-03-23T13:10:15;100102.13;;;15.73;37.94
28428;BME280;15662;49.128;8.520;2024-03-23T13:12:41;100085.41;;;15.51;38.36
28428;BME280;15662;49.128;8.520;2024-03-23T13:15:09;100067.66;;;15.33;38.56
28428;BME280;15662;49.128;8.520;2024-03-23T13:17:35;100075.69;;;15.33;38.94
28428;BME280;15662;49.128;8.520;2024-03-23T13:20:01;100085.19;;;15.38;39.32
28428;BME280;15662;49.128;8.520;2024-03-23T13:22:29;100077.72;;;15.45;39.27
28428;BME280;15662;49.128;8.520;2024-03-23T13:24:56;100072.00;;;15.53;39.32
28428;BME280;15662;49.128;8.520;2024-03-23T13:27:22;100070.59;;;15.63;39.23
28428;BME280;15662;49.128;8.520;2024-03-23T13:29:48;100047.19;;;15.68;39.15
28428;BME280;15662;49.128;8.520;2024-03-23T13:32:14;100051.22;;;15.77;39.03
28428;BME280;15662;49.128;8.520;2024-03-23T13:34:40;100043.19;;;15.77;38.72
28428;BME280;15662;49.128;8.520;2024-03-23T13:37:07;100031.78;;;15.73;38.78
28428;BME280;15662;49.128;8.520;2024-03-23T13:39:33;100046.78;;;15.76;38.73
28428;BME280;15662;49.128;8.520;2024-03-23T13:41:59;100046.72;;;15.77;38.66
28428;BME280;15662;49.128;8.520;2024-03-23T13:44:25;100053.88;;;15.77;38.67
28428;BME280;15662;49.128;8.520;2024-03-23T13:46:52;100048.34;;;15.80;38.84
28428;BME280;15662;49.128;8.520;2024-03-23T13:49:26;100054.94;;;15.90;38.55
28428;BME280;15662;49.128;8.520;2024-03-23T13:51:57;100038.91;;;15.90;38.39
28428;BME280;15662;49.128;8.520;2024-03-23T13:54:27;100030.28;;;15.85;38.51
28428;BME280;15662;49.128;8.520;2024-03-23T13:56:56;100028.22;;;15.90;38.46
28428;BME280;15662;49.128;8.520;2024-03-23T13:59:22;100027.97;;;15.94;38.44
28428;BME280;15662;49.128;8.520;2024-03-23T14:01:50;100021.63;;;15.97;38.27